Time;durP1;ratioP1;P1;durP2;ratioP2;P2;SDS_P1;SDS_P2;PMS_P1;PMS_P2;Temp;Humidity;BMP_temperature;BMP_pressure;BME280_temperature;BME280_humidity;BME280_pressure;Samples;Min_cycle;Max_cycle;Signal;HPM_P1;HPM_P2
2022/01/15 00:01:33;;;;;;;34.00;17.77;;;;;;;;;;5024388;28;20026;-64
2022/01/15 00:03:58;;;;;;;33.13;17.60;;;;;;;;;;5013782;28;20026;-64
2022/01/15 00:06:23;;;;;;;32.37;16.93;;;;;;;;;;5015386;28;20644;-65
2022/01/15 00:08:49;;;;;;;35.50;18.27;;;;;;;;;;5028483;28;20445;-63
2022/01/15 00:11:14;;;;;;;29.60;17.77;;;;;;;;;;5023182;28;20390;-64
2022/01/15 00:13:42;;;;;;;25.85;15.40;;;;;;;;;;5014320;28;20414;-64
2022/01/15 00:16:11;;;;;;;30.45;16.98;;;;;;;;;;5029056;28;20021;-64
2022/01/15 00:18:46;;;;;;;32.60;17.83;;;;;;;;;;5017163;28;20156;-65
2022/01/15 00:21:11;;;;;;;29.98;17.35;;;;;;;;;;5009991;28;20112;-65
2022/01/15 00:23:37;;;;;;;30.50;16.75;;;;;;;;;;5026531;28;20108;-65
2022/01/15 00:26:02;;;;;;;28.58;16.75;;;;;;;;;;5032200;28;20025;-65
2022/01/15 00:28:27;;;;;;;33.67;18.02;;;;;;;;;;5024078;28;20029;-65
2022/01/15 00:30:53;;;;;;;30.42;17.67;;;;;;;;;;5029223;28;20026;-65
2022/01/15 00:33:18;;;;;;;34.03;18.45;;;;;;;;;;5024903;28;20053;-65
2022/01/15 00:35:43;;;;;;;34.85;17.73;;;;;;;;;;5027046;28;20116;-65
2022/01/15 00:38:08;;;;;;;33.05;17.58;;;;;;;;;;5031238;28;20105;-65
2022/01/15 00:40:34;;;;;;;29.73;16.33;;;;;;;;;;5030086;28;20033;-63
2022/01/15 00:42:59;;;;;;;30.47;16.67;;;;;;;;;;5032201;28;20056;-64
2022/01/15 00:45:25;;;;;;;33.50;17.87;;;;;;;;;;5026271;28;20021;-64
2022/01/15 00:47:51;;;;;;;31.07;17.63;;;;;;;;;;5018760;28;20032;-64
2022/01/15 00:50:17;;;;;;;38.22;19.35;;;;;;;;;;5030491;28;20021;-64
2022/01/15 00:52:42;;;;;;;28.55;15.82;;;;;;;;;;5032964;28;20528;-64
2022/01/15 00:55:08;;;;;;;31.40;16.92;;;;;;;;;;5031967;28;20456;-64
2022/01/15 00:57:33;;;;;;;33.95;17.38;;;;;;;;;;5014055;28;20025;-64
2022/01/15 00:59:58;;;;;;;32.50;18.37;;;;;;;;;;5028396;28;20120;-64
2022/01/15 01:02:23;;;;;;;31.77;17.13;;;;;;;;;;5021119;28;20478;-65
2022/01/15 01:04:48;;;;;;;31.97;16.73;;;;;;;;;;5031345;28;20091;-65
2022/01/15 01:07:14;;;;;;;30.47;16.57;;;;;;;;;;5030197;28;20033;-65
2022/01/15 01:09:59;;;;;;;29.33;17.33;;;;;;;;;;5022831;28;20045;-65
2022/01/15 01:23:07;;;;;;;31.77;17.25;;;;;;;;;;5032143;28;20026;-65
2022/01/15 01:25:45;;;;;;;34.23;18.37;;;;;;;;;;5032651;28;20026;-65
2022/01/15 01:28:17;;;;;;;29.93;17.90;;;;;;;;;;5032150;28;20034;-65
2022/01/15 01:30:59;;;;;;;28.30;15.98;;;;;;;;;;5027692;28;20942;-65
2022/01/15 01:38:57;;;;;;;33.35;17.98;;;;;;;;;;5014180;28;20045;-66
2022/01/15 01:41:23;;;;;;;32.28;17.83;;;;;;;;;;5023602;28;20022;-63
2022/01/15 01:43:53;;;;;;;32.55;17.38;;;;;;;;;;5027197;28;20010;-63
2022/01/15 01:48:45;;;;;;;33.17;18.98;;;;;;;;;;5028239;28;20449;-64
2022/01/15 01:51:20;;;;;;;33.10;17.98;;;;;;;;;;5024899;28;20507;-63
2022/01/15 01:53:45;;;;;;;31.80;17.48;;;;;;;;;;5025314;28;20041;-64
2022/01/15 01:56:10;;;;;;;32.08;18.30;;;;;;;;;;5022571;28;20017;-64
2022/01/15 01:58:36;;;;;;;37.00;18.42;;;;;;;;;;5030364;28;20018;-64
2022/01/15 02:01:01;;;;;;;30.13;17.90;;;;;;;;;;5032864;28;20025;-65
2022/01/15 02:03:27;;;;;;;29.25;16.98;;;;;;;;;;5030468;28;20504;-65
2022/01/15 02:05:53;;;;;;;32.17;18.08;;;;;;;;;;5038748;28;20456;-65
2022/01/15 02:08:18;;;;;;;33.33;18.73;;;;;;;;;;5034350;28;20334;-65
2022/01/15 02:10:44;;;;;;;36.65;18.90;;;;;;;;;;5031225;28;20431;-65
2022/01/15 02:13:10;;;;;;;30.35;18.08;;;;;;;;;;5041238;28;20028;-64
2022/01/15 02:15:36;;;;;;;32.88;17.92;;;;;;;;;;5046288;28;20033;-64
2022/01/15 02:18:01;;;;;;;32.60;19.80;;;;;;;;;;5034873;28;20188;-64
2022/01/15 02:25:44;;;;;;;32.90;17.48;;;;;;;;;;5022713;28;20048;-64
2022/01/15 02:28:10;;;;;;;28.38;16.38;;;;;;;;;;5018766;28;20018;-66
2022/01/15 02:30:35;;;;;;;30.88;17.10;;;;;;;;;;5043870;28;20051;-64
2022/01/15 02:33:01;;;;;;;28.05;16.05;;;;;;;;;;5031377;28;20586;-64
2022/01/15 02:35:26;;;;;;;29.95;17.88;;;;;;;;;;5024779;28;20028;-64
2022/01/15 02:37:51;;;;;;;27.25;16.25;;;;;;;;;;5035243;28;20033;-64
2022/01/15 02:40:16;;;;;;;28.20;16.67;;;;;;;;;;5022267;28;20087;-64
2022/01/15 02:42:42;;;;;;;28.55;16.25;;;;;;;;;;5028660;28;20032;-65
2022/01/15 02:45:08;;;;;;;27.60;16.90;;;;;;;;;;5021266;28;20020;-65
2022/01/15 02:50:17;;;;;;;25.85;15.35;;;;;;;;;;5029680;28;20496;-65
2022/01/15 02:52:43;;;;;;;28.40;15.70;;;;;;;;;;5014132;28;20054;-65
2022/01/15 02:55:08;;;;;;;25.52;16.33;;;;;;;;;;5031555;28;20398;-65
2022/01/15 02:57:33;;;;;;;28.70;16.98;;;;;;;;;;5028812;28;20033;-65
2022/01/15 02:59:59;;;;;;;30.85;16.95;;;;;;;;;;5023220;28;20037;-65
2022/01/15 03:02:25;;;;;;;33.03;17.75;;;;;;;;;;5036922;28;20025;-64
2022/01/15 03:04:50;;;;;;;30.48;17.35;;;;;;;;;;5038283;28;20386;-65
2022/01/15 03:07:16;;;;;;;26.42;16.20;;;;;;;;;;5034770;28;20013;-64
2022/01/15 03:09:41;;;;;;;29.80;16.30;;;;;;;;;;5051470;28;20037;-64
2022/01/15 03:12:06;;;;;;;29.20;17.60;;;;;;;;;;5028782;28;20105;-64
2022/01/15 03:14:32;;;;;;;29.85;16.05;;;;;;;;;;5031334;28;20405;-64
2022/01/15 03:16:57;;;;;;;25.27;14.20;;;;;;;;;;5031788;28;20098;-64
2022/01/15 03:19:22;;;;;;;22.02;13.18;;;;;;;;;;5029884;28;20430;-64
2022/01/15 03:21:48;;;;;;;20.25;13.38;;;;;;;;;;5044250;28;20080;-64
2022/01/15 03:24:13;;;;;;;21.08;13.18;;;;;;;;;;5029632;28;20051;-64
2022/01/15 03:26:38;;;;;;;22.77;14.00;;;;;;;;;;5012035;28;20030;-64
2022/01/15 03:29:03;;;;;;;21.63;14.23;;;;;;;;;;5026327;28;20030;-64
2022/01/15 03:31:29;;;;;;;22.42;13.00;;;;;;;;;;5046443;28;20044;-64
2022/01/15 03:33:57;;;;;;;19.65;11.80;;;;;;;;;;5040072;28;20065;-64
2022/01/15 03:36:22;;;;;;;15.30;10.43;;;;;;;;;;5038034;28;20422;-65
2022/01/15 03:38:47;;;;;;;16.23;10.80;;;;;;;;;;5037080;28;20096;-65
2022/01/15 03:41:13;;;;;;;15.18;10.65;;;;;;;;;;5038574;28;20122;-64
2022/01/15 03:43:38;;;;;;;15.25;10.68;;;;;;;;;;5029384;28;20021;-65
2022/01/15 03:46:03;;;;;;;14.48;10.48;;;;;;;;;;5027966;28;20060;-65
2022/01/15 03:48:28;;;;;;;15.88;10.13;;;;;;;;;;5026820;28;20104;-65
2022/01/15 03:50:54;;;;;;;18.13;11.25;;;;;;;;;;5026061;28;20083;-65
2022/01/15 03:53:21;;;;;;;17.45;11.55;;;;;;;;;;5030017;28;20057;-64
2022/01/15 03:55:47;;;;;;;11.75;8.57;;;;;;;;;;5029240;28;20040;-64
2022/01/15 03:58:12;;;;;;;16.52;10.38;;;;;;;;;;5028019;28;20029;-64
2022/01/15 04:00:37;;;;;;;19.50;11.10;;;;;;;;;;5034207;28;20032;-64
2022/01/15 04:03:03;;;;;;;13.40;9.93;;;;;;;;;;5046496;28;20573;-64
2022/01/15 04:05:29;;;;;;;15.70;10.85;;;;;;;;;;5035955;28;20017;-64
2022/01/15 04:07:54;;;;;;;18.38;12.38;;;;;;;;;;5035201;28;20026;-64
2022/01/15 04:10:19;;;;;;;18.02;11.80;;;;;;;;;;5048176;28;20032;-64
2022/01/15 04:12:44;;;;;;;16.27;10.50;;;;;;;;;;5023457;28;20017;-63
2022/01/15 04:15:13;;;;;;;19.45;11.25;;;;;;;;;;5036307;28;20013;-63
2022/01/15 04:17:38;;;;;;;14.68;9.85;;;;;;;;;;5036824;28;20064;-64
2022/01/15 04:20:04;;;;;;;15.80;11.73;;;;;;;;;;5036927;28;20029;-64
2022/01/15 04:22:29;;;;;;;16.33;11.23;;;;;;;;;;5041668;28;20024;-64
2022/01/15 04:24:55;;;;;;;21.05;11.95;;;;;;;;;;5032956;28;20030;-64
2022/01/15 04:27:22;;;;;;;18.65;12.35;;;;;;;;;;5030691;28;20049;-64
2022/01/15 04:29:48;;;;;;;19.20;12.52;;;;;;;;;;5022741;28;20055;-64
2022/01/15 04:32:13;;;;;;;18.98;11.90;;;;;;;;;;5043056;28;20025;-64
2022/01/15 04:34:40;;;;;;;18.67;11.07;;;;;;;;;;5032285;28;20091;-64
2022/01/15 04:37:12;;;;;;;17.80;11.75;;;;;;;;;;5033149;28;20029;-64
2022/01/15 04:39:37;;;;;;;16.52;10.95;;;;;;;;;;5022336;28;20509;-64
2022/01/15 04:42:03;;;;;;;15.57;10.30;;;;;;;;;;5018769;28;20050;-64
2022/01/15 04:44:28;;;;;;;19.25;12.65;;;;;;;;;;5024897;28;20017;-64
2022/01/15 04:46:53;;;;;;;18.02;11.27;;;;;;;;;;5047128;28;20068;-64
2022/01/15 04:49:19;;;;;;;21.15;12.65;;;;;;;;;;5024840;28;20022;-65
2022/01/15 04:51:44;;;;;;;19.40;12.52;;;;;;;;;;5028941;28;20056;-64
2022/01/15 04:54:09;;;;;;;20.00;11.40;;;;;;;;;;5039181;28;20049;-65
2022/01/15 04:56:35;;;;;;;20.08;12.02;;;;;;;;;;5043141;28;20032;-64
2022/01/15 04:59:00;;;;;;;16.25;10.20;;;;;;;;;;5025515;28;20026;-65
2022/01/15 05:01:25;;;;;;;18.35;11.48;;;;;;;;;;5037283;28;20040;-65
2022/01/15 05:03:50;;;;;;;16.92;10.80;;;;;;;;;;5051695;28;20055;-66
2022/01/15 05:06:15;;;;;;;15.23;10.27;;;;;;;;;;5050558;28;20025;-63
2022/01/15 05:08:44;;;;;;;18.48;11.38;;;;;;;;;;5041629;28;20504;-64
2022/01/15 05:11:27;;;;;;;18.23;11.57;;;;;;;;;;5028388;28;20093;-64
2022/01/15 05:13:53;;;;;;;15.52;10.57;;;;;;;;;;5049915;28;20056;-65
2022/01/15 05:16:18;;;;;;;17.83;10.25;;;;;;;;;;5055864;28;20052;-65
2022/01/15 05:18:43;;;;;;;15.75;10.65;;;;;;;;;;5041291;28;20603;-65
2022/01/15 05:21:08;;;;;;;15.23;10.57;;;;;;;;;;5032839;28;20052;-65
2022/01/15 05:23:34;;;;;;;22.67;13.68;;;;;;;;;;5037447;28;20405;-64
2022/01/15 05:25:59;;;;;;;18.48;9.70;;;;;;;;;;5032540;28;20017;-64
2022/01/15 05:28:24;;;;;;;22.25;13.20;;;;;;;;;;5013527;28;20077;-65
2022/01/15 05:30:49;;;;;;;17.95;11.68;;;;;;;;;;5018752;28;20038;-65
2022/01/15 05:33:16;;;;;;;16.20;10.35;;;;;;;;;;5031854;28;20045;-65
2022/01/15 05:35:41;;;;;;;18.75;11.32;;;;;;;;;;5042565;28;20024;-65
2022/01/15 05:38:06;;;;;;;17.77;10.77;;;;;;;;;;5043634;28;20059;-64
2022/01/15 05:40:31;;;;;;;18.50;10.02;;;;;;;;;;5034862;28;20026;-64
2022/01/15 05:42:57;;;;;;;20.15;11.40;;;;;;;;;;5025331;28;20399;-65
2022/01/15 05:45:24;;;;;;;17.52;11.10;;;;;;;;;;5049946;28;20500;-65
2022/01/15 05:47:49;;;;;;;14.00;9.73;;;;;;;;;;5036387;28;20022;-64
2022/01/15 05:50:14;;;;;;;12.68;9.23;;;;;;;;;;5023686;28;20509;-65
2022/01/15 05:52:40;;;;;;;13.93;9.18;;;;;;;;;;5027775;28;20142;-66
2022/01/15 05:55:05;;;;;;;16.60;9.77;;;;;;;;;;5041999;28;20430;-65
2022/01/15 05:57:30;;;;;;;14.90;8.25;;;;;;;;;;5036409;28;20481;-65
2022/01/15 05:59:56;;;;;;;15.10;9.13;;;;;;;;;;5038516;28;20437;-65
2022/01/15 06:02:21;;;;;;;14.38;9.65;;;;;;;;;;5040149;28;20013;-65
2022/01/15 06:04:46;;;;;;;17.55;8.80;;;;;;;;;;5051358;28;20082;-65
2022/01/15 06:07:11;;;;;;;18.35;9.90;;;;;;;;;;5038822;28;20086;-65
2022/01/15 06:09:37;;;;;;;14.32;9.73;;;;;;;;;;5042595;28;20071;-65
2022/01/15 06:12:02;;;;;;;18.45;9.80;;;;;;;;;;5027318;28;20057;-65
2022/01/15 06:14:29;;;;;;;17.95;10.10;;;;;;;;;;5023035;28;20030;-65
2022/01/15 06:16:55;;;;;;;14.25;8.73;;;;;;;;;;5038497;28;20036;-65
2022/01/15 06:19:20;;;;;;;17.50;9.85;;;;;;;;;;5016090;28;20041;-65
2022/01/15 06:21:45;;;;;;;13.77;9.57;;;;;;;;;;5028492;28;20025;-65
2022/01/15 06:24:10;;;;;;;13.40;9.18;;;;;;;;;;5028198;28;20052;-65
2022/01/15 06:26:35;;;;;;;17.35;9.80;;;;;;;;;;5039529;28;20025;-65
2022/01/15 06:29:01;;;;;;;17.55;9.57;;;;;;;;;;5036181;28;20013;-65
2022/01/15 06:31:28;;;;;;;15.98;9.32;;;;;;;;;;5045371;28;20253;-64
2022/01/15 06:33:53;;;;;;;16.20;9.57;;;;;;;;;;5029620;28;20087;-64
2022/01/15 06:36:18;;;;;;;15.57;10.02;;;;;;;;;;5045256;28;20017;-64
2022/01/15 06:38:43;;;;;;;17.15;10.10;;;;;;;;;;5027419;28;20036;-64
2022/01/15 06:41:09;;;;;;;15.25;10.30;;;;;;;;;;5035918;28;20033;-64
2022/01/15 06:43:34;;;;;;;18.05;10.27;;;;;;;;;;5026708;28;20017;-65
2022/01/15 06:45:59;;;;;;;15.93;10.40;;;;;;;;;;5039033;28;20502;-65
2022/01/15 06:48:26;;;;;;;17.48;12.07;;;;;;;;;;5025047;28;20112;-65
2022/01/15 06:50:51;;;;;;;18.20;10.82;;;;;;;;;;5027319;28;20517;-64
2022/01/15 06:53:17;;;;;;;17.42;10.98;;;;;;;;;;5024008;28;20103;-65
2022/01/15 06:55:42;;;;;;;16.92;10.57;;;;;;;;;;5026870;28;20056;-65
2022/01/15 06:58:07;;;;;;;16.77;11.65;;;;;;;;;;5027760;28;20040;-66
2022/01/15 07:00:33;;;;;;;17.30;11.57;;;;;;;;;;5029703;28;20440;-65
2022/01/15 07:03:01;;;;;;;21.23;12.45;;;;;;;;;;5026762;28;20482;-65
2022/01/15 07:05:26;;;;;;;17.92;12.05;;;;;;;;;;5026715;28;20477;-65
2022/01/15 07:07:52;;;;;;;17.92;11.55;;;;;;;;;;5025260;28;20034;-65
2022/01/15 07:10:17;;;;;;;20.00;11.55;;;;;;;;;;5012729;28;20504;-64
2022/01/15 07:12:43;;;;;;;17.05;11.18;;;;;;;;;;5018217;28;20025;-65
2022/01/15 07:15:08;;;;;;;16.17;11.50;;;;;;;;;;5048842;28;20047;-65
2022/01/15 07:17:39;;;;;;;16.92;11.82;;;;;;;;;;5033567;28;20393;-65
2022/01/15 07:20:05;;;;;;;20.35;12.20;;;;;;;;;;5027611;28;20433;-64
2022/01/15 07:22:30;;;;;;;19.25;11.70;;;;;;;;;;5030422;28;20048;-64
2022/01/15 07:24:55;;;;;;;17.85;12.05;;;;;;;;;;5041500;28;20056;-64
2022/01/15 07:27:21;;;;;;;17.48;11.27;;;;;;;;;;5022397;28;20064;-63
2022/01/15 07:29:46;;;;;;;20.95;12.15;;;;;;;;;;5010255;28;20033;-64
2022/01/15 07:32:11;;;;;;;17.88;12.00;;;;;;;;;;5039256;28;20390;-64
2022/01/15 07:34:36;;;;;;;17.25;10.98;;;;;;;;;;5028642;28;20041;-64
2022/01/15 07:37:02;;;;;;;18.67;11.48;;;;;;;;;;5024349;28;20064;-64
2022/01/15 07:39:27;;;;;;;22.38;11.70;;;;;;;;;;5024325;28;20067;-64
2022/01/15 07:41:53;;;;;;;19.70;12.30;;;;;;;;;;5006740;28;20044;-64
2022/01/15 07:44:18;;;;;;;19.65;12.27;;;;;;;;;;5024215;28;20018;-64
2022/01/15 07:46:43;;;;;;;16.00;11.00;;;;;;;;;;5022798;28;20030;-64
2022/01/15 07:49:09;;;;;;;19.05;11.10;;;;;;;;;;5044528;28;20052;-64
2022/01/15 07:51:34;;;;;;;17.48;11.23;;;;;;;;;;5023787;28;20032;-65
2022/01/15 07:53:59;;;;;;;16.25;10.43;;;;;;;;;;5037537;28;20048;-65
2022/01/15 07:56:24;;;;;;;15.70;11.15;;;;;;;;;;5009342;28;20026;-65
2022/01/15 07:58:50;;;;;;;16.50;11.65;;;;;;;;;;5026624;28;20014;-65
2022/01/15 08:01:16;;;;;;;20.95;11.75;;;;;;;;;;5023705;28;20048;-65
2022/01/15 08:03:42;;;;;;;17.40;12.40;;;;;;;;;;5026140;28;20040;-65
2022/01/15 08:06:09;;;;;;;18.08;11.73;;;;;;;;;;5024569;28;20017;-65
2022/01/15 08:08:34;;;;;;;20.65;12.68;;;;;;;;;;5025744;28;20057;-65
2022/01/15 08:10:59;;;;;;;23.95;13.38;;;;;;;;;;5025115;28;20479;-64
2022/01/15 08:13:25;;;;;;;17.42;11.75;;;;;;;;;;5020276;28;20467;-65
2022/01/15 08:15:51;;;;;;;19.77;12.32;;;;;;;;;;5023897;28;20048;-64
2022/01/15 08:18:18;;;;;;;17.63;12.82;;;;;;;;;;5027077;28;20123;-65
2022/01/15 08:20:44;;;;;;;17.85;12.18;;;;;;;;;;5021767;28;20026;-65
2022/01/15 08:23:09;;;;;;;19.83;11.73;;;;;;;;;;5023846;28;20505;-65
2022/01/15 08:25:34;;;;;;;21.55;12.95;;;;;;;;;;5025690;28;20022;-65
2022/01/15 08:27:59;;;;;;;16.63;12.55;;;;;;;;;;5021747;28;20092;-65
2022/01/15 08:30:24;;;;;;;20.20;13.05;;;;;;;;;;5024196;28;20031;-65
2022/01/15 08:32:50;;;;;;;19.77;13.43;;;;;;;;;;5029545;28;20037;-65
2022/01/15 08:35:15;;;;;;;21.73;12.65;;;;;;;;;;5025808;28;20161;-65
2022/01/15 08:37:40;;;;;;;21.60;12.88;;;;;;;;;;5023178;28;20037;-65
2022/01/15 08:40:07;;;;;;;19.65;12.48;;;;;;;;;;5025490;28;20036;-65
2022/01/15 08:42:34;;;;;;;22.63;13.65;;;;;;;;;;5019813;28;21524;-65
2022/01/15 08:44:59;;;;;;;23.08;13.25;;;;;;;;;;5033390;28;20056;-65
2022/01/15 08:47:25;;;;;;;17.67;11.95;;;;;;;;;;5034895;28;20145;-65
2022/01/15 08:49:50;;;;;;;22.35;12.93;;;;;;;;;;5041830;28;20037;-65
2022/01/15 08:52:15;;;;;;;17.98;12.20;;;;;;;;;;5025509;28;20113;-65
2022/01/15 08:54:40;;;;;;;21.73;12.68;;;;;;;;;;5023629;28;20033;-65
2022/01/15 08:57:05;;;;;;;18.48;10.90;;;;;;;;;;5035002;28;20051;-64
2022/01/15 08:59:31;;;;;;;17.65;11.27;;;;;;;;;;5022837;28;20021;-65
2022/01/15 09:01:59;;;;;;;16.48;10.15;;;;;;;;;;5026592;28;20018;-64
2022/01/15 09:04:24;;;;;;;17.38;10.98;;;;;;;;;;5025586;28;20391;-65
2022/01/15 09:06:50;;;;;;;15.27;11.20;;;;;;;;;;5021243;28;20052;-65
2022/01/15 09:09:15;;;;;;;16.63;11.77;;;;;;;;;;5032707;28;20453;-65
2022/01/15 09:11:41;;;;;;;18.80;11.98;;;;;;;;;;5019614;28;20340;-65
2022/01/15 09:14:06;;;;;;;19.40;11.52;;;;;;;;;;5023597;28;20045;-65
2022/01/15 09:16:31;;;;;;;18.60;11.82;;;;;;;;;;5026662;28;20025;-65
2022/01/15 09:18:57;;;;;;;17.40;11.02;;;;;;;;;;5020237;28;20105;-64
2022/01/15 09:21:23;;;;;;;18.38;11.52;;;;;;;;;;5023754;28;20030;-65
2022/01/15 09:23:48;;;;;;;18.85;11.40;;;;;;;;;;5023522;28;20094;-65
2022/01/15 09:26:45;;;;;;;16.63;10.05;;;;;;;;;;5034270;28;20029;-65
2022/01/15 09:31:49;;;;;;;20.65;11.70;;;;;;;;;;5023258;28;20079;-65
2022/01/15 09:34:14;;;;;;;16.02;11.20;;;;;;;;;;5031753;28;20033;-64
2022/01/15 09:36:39;;;;;;;19.35;11.48;;;;;;;;;;5041080;28;20029;-64
2022/01/15 09:39:04;;;;;;;17.40;11.40;;;;;;;;;;5035622;28;20434;-64
2022/01/15 09:41:31;;;;;;;17.48;10.90;;;;;;;;;;5022977;28;20390;-64
2022/01/15 09:43:56;;;;;;;21.52;12.27;;;;;;;;;;5025746;28;20152;-64
2022/01/15 09:46:21;;;;;;;21.27;13.05;;;;;;;;;;5025978;28;20018;-64
2022/01/15 09:48:47;;;;;;;21.23;12.40;;;;;;;;;;5019573;28;20457;-64
2022/01/15 09:51:12;;;;;;;19.10;12.35;;;;;;;;;;5028909;28;20017;-65
2022/01/15 09:53:38;;;;;;;18.35;11.07;;;;;;;;;;5029986;28;20060;-64
2022/01/15 09:56:06;;;;;;;19.25;11.68;;;;;;;;;;5033257;28;20048;-63
2022/01/15 09:58:31;;;;;;;17.58;10.98;;;;;;;;;;5026524;28;20078;-64
2022/01/15 10:00:57;;;;;;;16.83;11.30;;;;;;;;;;5025282;28;20024;-64
2022/01/15 10:03:23;;;;;;;20.70;12.07;;;;;;;;;;5040543;28;20069;-64
2022/01/15 10:05:49;;;;;;;19.42;11.85;;;;;;;;;;5038893;28;20065;-64
2022/01/15 10:08:17;;;;;;;20.92;11.63;;;;;;;;;;5041765;28;20030;-64
2022/01/15 10:10:46;;;;;;;19.55;12.02;;;;;;;;;;5016540;28;20076;-63
2022/01/15 10:13:14;;;;;;;20.08;13.10;;;;;;;;;;5012309;28;20099;-64
2022/01/15 10:15:39;;;;;;;19.40;11.55;;;;;;;;;;5028256;28;20032;-63
2022/01/15 10:18:17;;;;;;;18.75;10.20;;;;;;;;;;5023892;28;20030;-63
2022/01/15 10:20:42;;;;;;;13.52;5.07;;;;;;;;;;5016216;28;20034;-64
2022/01/15 10:23:13;;;;;;;12.38;7.45;;;;;;;;;;5026488;28;20025;-65
2022/01/15 10:25:39;;;;;;;16.08;8.52;;;;;;;;;;5033357;28;20093;-65
2022/01/15 10:28:04;;;;;;;13.60;7.30;;;;;;;;;;5034049;28;20531;-64
2022/01/15 10:30:29;;;;;;;12.27;5.13;;;;;;;;;;5033408;28;20445;-65
2022/01/15 10:32:55;;;;;;;12.30;5.70;;;;;;;;;;5033229;28;20033;-64
2022/01/15 10:35:22;;;;;;;8.63;4.28;;;;;;;;;;5043798;28;20457;-64
2022/01/15 10:37:57;;;;;;;11.15;4.72;;;;;;;;;;5035462;28;20025;-64
2022/01/15 10:40:25;;;;;;;8.40;4.55;;;;;;;;;;5024352;28;20013;-64
2022/01/15 10:42:57;;;;;;;10.43;3.40;;;;;;;;;;5019979;28;20053;-64
2022/01/15 10:45:24;;;;;;;12.05;3.38;;;;;;;;;;5044221;28;20029;-64
2022/01/15 10:47:50;;;;;;;10.40;3.53;;;;;;;;;;5029524;28;20509;-64
2022/01/15 10:50:23;;;;;;;9.40;3.90;;;;;;;;;;5030747;28;20036;-64
2022/01/15 10:52:48;;;;;;;9.77;4.63;;;;;;;;;;5032590;28;20061;-64
2022/01/15 10:55:15;;;;;;;9.07;3.05;;;;;;;;;;5025062;28;20050;-65
2022/01/15 10:57:42;;;;;;;10.10;3.80;;;;;;;;;;5042134;28;20048;-65
2022/01/15 11:00:08;;;;;;;7.55;3.20;;;;;;;;;;5039340;28;20039;-63
2022/01/15 11:02:33;;;;;;;9.40;4.25;;;;;;;;;;5020186;28;20018;-64
2022/01/15 11:04:59;;;;;;;8.75;4.03;;;;;;;;;;5038736;28;20556;-64
2022/01/15 11:07:24;;;;;;;11.88;4.50;;;;;;;;;;5032457;28;20021;-65
2022/01/15 11:09:56;;;;;;;9.90;4.05;;;;;;;;;;5030983;28;20120;-64
2022/01/15 11:12:26;;;;;;;11.20;4.30;;;;;;;;;;5022048;28;20471;-64
2022/01/15 11:14:51;;;;;;;9.52;5.00;;;;;;;;;;5024461;28;20048;-64
2022/01/15 11:17:16;;;;;;;14.80;6.25;;;;;;;;;;5031277;28;20541;-65
2022/01/15 11:19:43;;;;;;;14.85;6.00;;;;;;;;;;5030524;28;20029;-64
2022/01/15 11:22:08;;;;;;;10.38;5.60;;;;;;;;;;5047422;28;20033;-64
2022/01/15 11:24:34;;;;;;;12.55;5.03;;;;;;;;;;5044291;28;20029;-64
2022/01/15 11:27:00;;;;;;;9.48;5.03;;;;;;;;;;5025122;28;20060;-65
2022/01/15 11:29:26;;;;;;;13.98;4.70;;;;;;;;;;5030727;28;20037;-65
2022/01/15 11:31:53;;;;;;;11.73;4.18;;;;;;;;;;5030204;28;20441;-64
2022/01/15 11:34:23;;;;;;;10.00;3.92;;;;;;;;;;5013249;28;20121;-64
2022/01/15 11:36:48;;;;;;;11.13;4.93;;;;;;;;;;5030609;28;20458;-65
2022/01/15 11:39:13;;;;;;;14.55;5.00;;;;;;;;;;5028342;28;20067;-64
2022/01/15 11:41:39;;;;;;;11.15;5.18;;;;;;;;;;5021311;28;20566;-65
2022/01/15 11:44:06;;;;;;;11.52;3.30;;;;;;;;;;5012473;28;20469;-64
2022/01/15 11:46:43;;;;;;;7.53;3.55;;;;;;;;;;5011399;28;20038;-64
2022/01/15 11:49:23;;;;;;;10.27;3.47;;;;;;;;;;5026623;28;20379;-65
2022/01/15 11:51:49;;;;;;;7.72;3.20;;;;;;;;;;5029320;28;20025;-64
2022/01/15 11:54:14;;;;;;;7.82;3.55;;;;;;;;;;5009674;28;20045;-64
2022/01/15 11:56:42;;;;;;;7.70;3.22;;;;;;;;;;5022488;28;20026;-65
2022/01/15 11:59:25;;;;;;;10.38;3.75;;;;;;;;;;5026172;28;20025;-65
2022/01/15 12:01:51;;;;;;;11.30;3.95;;;;;;;;;;5030909;28;20025;-64
2022/01/15 12:04:33;;;;;;;9.65;2.90;;;;;;;;;;5013106;28;20076;-64
2022/01/15 12:07:04;;;;;;;8.85;4.28;;;;;;;;;;5036201;28;20025;-64
2022/01/15 12:09:30;;;;;;;9.30;3.25;;;;;;;;;;5024679;28;20100;-64
2022/01/15 12:11:55;;;;;;;13.00;4.43;;;;;;;;;;5015829;28;20116;-64
2022/01/15 12:14:40;;;;;;;7.53;2.80;;;;;;;;;;5023125;28;20429;-64
2022/01/15 12:17:24;;;;;;;8.07;2.92;;;;;;;;;;5030487;28;20029;-64
2022/01/15 12:19:50;;;;;;;7.82;3.50;;;;;;;;;;5040443;28;20033;-64
2022/01/15 12:22:34;;;;;;;6.28;3.40;;;;;;;;;;5037877;28;20378;-63
2022/01/15 12:24:59;;;;;;;7.72;3.88;;;;;;;;;;5034695;28;20017;-64
2022/01/15 12:27:28;;;;;;;8.52;3.30;;;;;;;;;;5025171;28;20022;-64
2022/01/15 12:30:05;;;;;;;9.95;3.08;;;;;;;;;;5018562;28;20028;-65
2022/01/15 12:32:31;;;;;;;9.85;3.03;;;;;;;;;;5045938;28;20026;-64
2022/01/15 12:34:57;;;;;;;6.45;2.67;;;;;;;;;;5051898;28;20120;-64
2022/01/15 12:37:23;;;;;;;8.07;2.22;;;;;;;;;;5041853;28;20026;-64
2022/01/15 12:39:49;;;;;;;6.50;2.50;;;;;;;;;;5032672;28;20032;-64
2022/01/15 12:42:17;;;;;;;8.32;2.83;;;;;;;;;;5018338;28;20050;-64
2022/01/15 12:44:42;;;;;;;11.90;2.95;;;;;;;;;;5021794;28;20021;-64
2022/01/15 12:47:07;;;;;;;13.00;5.18;;;;;;;;;;5039139;28;20014;-64
2022/01/15 12:49:36;;;;;;;9.85;3.55;;;;;;;;;;5014489;28;20126;-64
2022/01/15 12:52:13;;;;;;;7.68;2.80;;;;;;;;;;5037289;28;20026;-64
2022/01/15 12:54:38;;;;;;;6.53;2.20;;;;;;;;;;5032613;28;20099;-64
2022/01/15 12:57:03;;;;;;;8.02;3.10;;;;;;;;;;5020176;28;20024;-63
2022/01/15 12:59:28;;;;;;;5.30;2.72;;;;;;;;;;5036970;28;20166;-63
2022/01/15 13:01:54;;;;;;;7.80;2.90;;;;;;;;;;5041525;28;20397;-63
2022/01/15 13:04:19;;;;;;;6.25;2.80;;;;;;;;;;5041824;28;20470;-64
2022/01/15 13:06:49;;;;;;;8.32;2.90;;;;;;;;;;5046456;28;20108;-64
2022/01/15 13:09:15;;;;;;;8.50;2.92;;;;;;;;;;5031550;28;20017;-63
2022/01/15 13:11:48;;;;;;;8.98;2.90;;;;;;;;;;5023981;28;20021;-64
2022/01/15 13:14:13;;;;;;;9.15;2.47;;;;;;;;;;5013508;28;20021;-64
2022/01/15 13:16:38;;;;;;;8.90;3.30;;;;;;;;;;5014766;28;20497;-64
2022/01/15 13:19:05;;;;;;;8.18;3.30;;;;;;;;;;5029305;28;20433;-64
2022/01/15 13:21:32;;;;;;;7.50;2.20;;;;;;;;;;5031488;28;20022;-64
2022/01/15 13:24:10;;;;;;;9.38;3.50;;;;;;;;;;5031308;28;20386;-64
2022/01/15 13:26:35;;;;;;;9.75;2.85;;;;;;;;;;5025834;28;20025;-64
2022/01/15 13:29:02;;;;;;;16.50;4.32;;;;;;;;;;5021235;28;20434;-64
2022/01/15 13:31:28;;;;;;;8.43;3.88;;;;;;;;;;5031307;28;20067;-64
2022/01/15 13:33:54;;;;;;;7.53;3.13;;;;;;;;;;5016977;28;20026;-64
2022/01/15 13:36:19;;;;;;;9.52;4.05;;;;;;;;;;5022445;28;20036;-63
2022/01/15 13:38:48;;;;;;;7.07;2.75;;;;;;;;;;5025058;28;20091;-64
2022/01/15 13:41:15;;;;;;;7.68;2.60;;;;;;;;;;5028866;28;20124;-69
2022/01/15 13:43:42;;;;;;;6.40;3.50;;;;;;;;;;5040493;28;20052;-67
2022/01/15 13:46:12;;;;;;;5.55;2.75;;;;;;;;;;5022969;28;20071;-63
2022/01/15 13:48:37;;;;;;;7.80;2.72;;;;;;;;;;5027207;28;20100;-68
2022/01/15 13:53:57;;;;;;;9.25;4.03;;;;;;;;;;5020226;28;20095;-66
2022/01/15 13:56:24;;;;;;;7.50;4.22;;;;;;;;;;5028215;28;20487;-66
2022/01/15 13:58:52;;;;;;;11.25;5.72;;;;;;;;;;5022904;28;20036;-67
2022/01/15 14:01:31;;;;;;;10.57;5.63;;;;;;;;;;5023477;28;20029;-67
2022/01/15 14:03:58;;;;;;;11.50;5.45;;;;;;;;;;5032441;28;20036;-67
2022/01/15 14:06:23;;;;;;;10.10;5.80;;;;;;;;;;5029673;28;20013;-67
2022/01/15 14:08:59;;;;;;;11.38;6.88;;;;;;;;;;5028237;28;20075;-67
2022/01/15 14:11:24;;;;;;;;;;;;;;;;;;5017820;28;20025;-68
2022/01/15 14:13:49;;;;;;;12.20;8.00;;;;;;;;;;5027248;28;19915;-67
2022/01/15 14:16:19;;;;;;;12.27;9.13;;;;;;;;;;5029190;28;20076;-67
2022/01/15 14:18:46;;;;;;;15.82;9.15;;;;;;;;;;5030249;28;20036;-68
2022/01/15 14:21:38;;;;;;;13.32;9.38;;;;;;;;;;5029459;28;20032;-69
2022/01/15 14:24:16;;;;;;;12.23;9.73;;;;;;;;;;5031070;28;20025;-68
2022/01/15 14:26:46;;;;;;;13.77;9.85;;;;;;;;;;5031485;28;20017;-67
2022/01/15 14:29:12;;;;;;;12.10;9.45;;;;;;;;;;5021119;28;20013;-69
2022/01/15 14:31:37;;;;;;;14.82;9.90;;;;;;;;;;5022095;28;20022;-67
2022/01/15 14:34:04;;;;;;;15.38;9.98;;;;;;;;;;5039058;28;20028;-68
2022/01/15 14:36:29;;;;;;;14.60;10.30;;;;;;;;;;5035928;28;20025;-68
2022/01/15 14:38:54;;;;;;;14.90;10.30;;;;;;;;;;5020834;28;20075;-69
2022/01/15 14:41:19;;;;;;;15.35;10.73;;;;;;;;;;5020952;28;20037;-67
2022/01/15 14:43:45;;;;;;;16.40;10.25;;;;;;;;;;5026187;28;20048;-69
2022/01/15 14:46:10;;;;;;;16.58;10.52;;;;;;;;;;5028279;28;20064;-68
2022/01/15 14:48:35;;;;;;;13.98;10.60;;;;;;;;;;5026933;28;20355;-67
2022/01/15 14:51:01;;;;;;;18.73;11.50;;;;;;;;;;5031445;28;20025;-67
2022/01/15 14:53:26;;;;;;;16.13;10.25;;;;;;;;;;5037389;28;20052;-67